LOT4PL EPGD-ENGM
Flight info
| Callsign | LOT4PL |
|---|---|
| Flight time | N/A |
| Altitude | 38000 |
| Route | VAPOS N133 PENOR DCT KSD Z259 ESEBA |
| Aircraft | B38M/M-SDE1FGHILORVWXY/HB1 |
Departure
| Time | N/A |
|---|---|
| Airport | Gdańsk Lech Wałęsa Airport (EPGD) |
Arrival
| Time | 2026-05-03 21:18 |
|---|---|
| Airport | Oslo-Gardermoen International Airport (ENGM) |
| Time | Latitude | Longitude | Altitude | Speed | Heading |
|---|---|---|---|---|---|
| 2026-05-03 20:15 | 54.67154 | 18.12854 | 21661 ft | 378 kts | 302° |
| 2026-05-03 20:15 | 54.68687 | 18.09137 | 22192 ft | 382 kts | 302° |
| 2026-05-03 20:15 | 54.70231 | 18.05384 | 22724 ft | 385 kts | 302° |
| 2026-05-03 20:15 | 54.71770 | 18.01640 | 23253 ft | 388 kts | 302° |
| 2026-05-03 20:16 | 54.73340 | 17.97813 | 23717 ft | 392 kts | 302° |
| 2026-05-03 20:16 | 54.74921 | 17.93952 | 24162 ft | 394 kts | 302° |
| 2026-05-03 20:16 | 54.76508 | 17.90073 | 24593 ft | 397 kts | 302° |
| 2026-05-03 20:16 | 54.78119 | 17.86154 | 25008 ft | 400 kts | 304° |
| 2026-05-03 20:17 | 54.80129 | 17.82774 | 25462 ft | 409 kts | 322° |
| 2026-05-03 20:17 | 54.82652 | 17.80409 | 25898 ft | 415 kts | 331° |
| 2026-05-03 20:17 | 54.85276 | 17.78255 | 26275 ft | 419 kts | 331° |
| 2026-05-03 20:17 | 54.87921 | 17.76117 | 26687 ft | 421 kts | 332° |
| 2026-05-03 20:18 | 54.90587 | 17.73989 | 27087 ft | 423 kts | 332° |
| 2026-05-03 20:18 | 54.93276 | 17.71857 | 27474 ft | 426 kts | 332° |
| 2026-05-03 20:18 | 54.95065 | 17.70441 | 27753 ft | 428 kts | 332° |
| 2026-05-03 20:18 | 54.97790 | 17.68316 | 28108 ft | 431 kts | 333° |
| 2026-05-03 20:19 | 55.00549 | 17.66221 | 28479 ft | 434 kts | 333° |
| 2026-05-03 20:19 | 55.03313 | 17.64110 | 28871 ft | 436 kts | 333° |
| 2026-05-03 20:19 | 55.06101 | 17.61976 | 29228 ft | 438 kts | 333° |
| 2026-05-03 20:19 | 55.08903 | 17.59827 | 29598 ft | 440 kts | 333° |
| 2026-05-03 20:20 | 55.11687 | 17.57571 | 29937 ft | 441 kts | 330° |
| 2026-05-03 20:20 | 55.14441 | 17.55156 | 30231 ft | 444 kts | 330° |
| 2026-05-03 20:20 | 55.17214 | 17.52751 | 30550 ft | 445 kts | 330° |
| 2026-05-03 20:20 | 55.19989 | 17.50351 | 30853 ft | 447 kts | 330° |
| 2026-05-03 20:21 | 55.22791 | 17.47929 | 31170 ft | 448 kts | 330° |
| 2026-05-03 20:21 | 55.25591 | 17.45506 | 31467 ft | 450 kts | 330° |
| 2026-05-03 20:21 | 55.28365 | 17.43102 | 31762 ft | 452 kts | 330° |
| 2026-05-03 20:21 | 55.31195 | 17.40646 | 32070 ft | 453 kts | 330° |
| 2026-05-03 20:22 | 55.34018 | 17.38192 | 32467 ft | 453 kts | 329° |
| 2026-05-03 20:22 | 55.36834 | 17.35740 | 32878 ft | 451 kts | 329° |
| 2026-05-03 20:22 | 55.39643 | 17.33290 | 33296 ft | 450 kts | 329° |
| 2026-05-03 20:22 | 55.42433 | 17.30854 | 33703 ft | 448 kts | 329° |
| 2026-05-03 20:23 | 55.45230 | 17.28407 | 34085 ft | 447 kts | 329° |
| 2026-05-03 20:23 | 55.48004 | 17.25976 | 34411 ft | 446 kts | 329° |
| 2026-05-03 20:23 | 55.50782 | 17.23538 | 34716 ft | 445 kts | 329° |
| 2026-05-03 20:23 | 55.53560 | 17.21096 | 35021 ft | 445 kts | 329° |
| 2026-05-03 20:24 | 55.56324 | 17.18663 | 35321 ft | 444 kts | 329° |
| 2026-05-03 20:24 | 55.59092 | 17.16222 | 35617 ft | 444 kts | 329° |
| 2026-05-03 20:24 | 55.61849 | 17.13787 | 35900 ft | 443 kts | 329° |
| 2026-05-03 20:24 | 55.64604 | 17.11350 | 36204 ft | 443 kts | 328° |
| 2026-05-03 20:25 | 55.67357 | 17.08911 | 36518 ft | 441 kts | 328° |
| 2026-05-03 20:25 | 55.70072 | 17.06501 | 36797 ft | 441 kts | 328° |
| 2026-05-03 20:25 | 55.72812 | 17.04067 | 37057 ft | 440 kts | 328° |
| 2026-05-03 20:25 | 55.75547 | 17.01631 | 37307 ft | 440 kts | 328° |
| 2026-05-03 20:26 | 55.78283 | 16.99192 | 37548 ft | 439 kts | 328° |
| 2026-05-03 20:26 | 55.81016 | 16.96751 | 37790 ft | 439 kts | 328° |
| 2026-05-03 20:26 | 55.83741 | 16.94315 | 37917 ft | 440 kts | 328° |
| 2026-05-03 20:27 | 55.89228 | 16.89395 | 37883 ft | 441 kts | 328° |
| 2026-05-03 20:27 | 55.94713 | 16.84462 | 37887 ft | 441 kts | 328° |
| 2026-05-03 20:28 | 56.00200 | 16.79511 | 37889 ft | 441 kts | 328° |
| 2026-05-03 20:28 | 56.05644 | 16.74584 | 37882 ft | 442 kts | 328° |
| 2026-05-03 20:29 | 56.11113 | 16.69618 | 37883 ft | 441 kts | 328° |
| 2026-05-03 20:29 | 56.16602 | 16.64616 | 37878 ft | 442 kts | 328° |
| 2026-05-03 20:30 | 56.22105 | 16.59587 | 37874 ft | 446 kts | 328° |
| 2026-05-03 20:30 | 56.27634 | 16.54518 | 37895 ft | 445 kts | 328° |
| 2026-05-03 20:31 | 56.33148 | 16.49446 | 37873 ft | 445 kts | 328° |
| 2026-05-03 20:31 | 56.38668 | 16.44351 | 37872 ft | 445 kts | 327° |
| 2026-05-03 20:32 | 56.44146 | 16.39279 | 37875 ft | 445 kts | 327° |
| 2026-05-03 20:32 | 56.49669 | 16.34148 | 37884 ft | 446 kts | 327° |
| 2026-05-03 20:33 | 56.55191 | 16.29001 | 37886 ft | 447 kts | 327° |
| 2026-05-03 20:33 | 56.60729 | 16.23823 | 37900 ft | 447 kts | 327° |
| 2026-05-03 20:34 | 56.66250 | 16.18642 | 37884 ft | 446 kts | 327° |
| 2026-05-03 20:34 | 56.71772 | 16.13445 | 37885 ft | 446 kts | 327° |
| 2026-05-03 20:35 | 56.77286 | 16.08236 | 37880 ft | 446 kts | 327° |
| 2026-05-03 20:35 | 56.82769 | 16.03040 | 37877 ft | 446 kts | 327° |
| 2026-05-03 20:36 | 56.88284 | 15.97796 | 37886 ft | 447 kts | 327° |
| 2026-05-03 20:36 | 56.93818 | 15.92517 | 37877 ft | 448 kts | 326° |
| 2026-05-03 20:37 | 56.99329 | 15.87242 | 37868 ft | 447 kts | 326° |
| 2026-05-03 20:37 | 57.04843 | 15.81946 | 37870 ft | 447 kts | 326° |
| 2026-05-03 20:38 | 57.10355 | 15.76634 | 37873 ft | 447 kts | 326° |
| 2026-05-03 20:38 | 57.15866 | 15.71306 | 37866 ft | 447 kts | 326° |
| 2026-05-03 20:39 | 57.21366 | 15.65969 | 37876 ft | 447 kts | 326° |
| 2026-05-03 20:39 | 57.26877 | 15.60604 | 37890 ft | 448 kts | 326° |
| 2026-05-03 20:40 | 57.32347 | 15.55261 | 37868 ft | 448 kts | 326° |
| 2026-05-03 20:40 | 57.37867 | 15.49850 | 37872 ft | 448 kts | 326° |
| 2026-05-03 20:41 | 57.43364 | 15.44443 | 37864 ft | 448 kts | 326° |
| 2026-05-03 20:41 | 57.48874 | 15.39005 | 37868 ft | 448 kts | 326° |
| 2026-05-03 20:42 | 57.54382 | 15.33550 | 37870 ft | 448 kts | 326° |
| 2026-05-03 20:42 | 57.59878 | 15.28089 | 37850 ft | 448 kts | 325° |
| 2026-05-03 20:43 | 57.65380 | 15.22602 | 37865 ft | 450 kts | 325° |
| 2026-05-03 20:43 | 57.70882 | 15.17096 | 37862 ft | 451 kts | 325° |
| 2026-05-03 20:44 | 57.76418 | 15.11538 | 37862 ft | 451 kts | 325° |
| 2026-05-03 20:44 | 57.81946 | 15.05967 | 37852 ft | 451 kts | 325° |
| 2026-05-03 20:45 | 57.87477 | 15.00374 | 37864 ft | 451 kts | 325° |
| 2026-05-03 20:45 | 57.93002 | 14.94768 | 37856 ft | 451 kts | 325° |
| 2026-05-03 20:46 | 57.98519 | 14.89150 | 37851 ft | 451 kts | 325° |
| 2026-05-03 20:46 | 58.04011 | 14.83538 | 37872 ft | 452 kts | 325° |
| 2026-05-03 20:47 | 58.09535 | 14.77872 | 37860 ft | 452 kts | 325° |
| 2026-05-03 20:47 | 58.15059 | 14.72187 | 37857 ft | 452 kts | 325° |
| 2026-05-03 20:48 | 58.20583 | 14.66481 | 37885 ft | 451 kts | 325° |
| 2026-05-03 20:48 | 58.26075 | 14.60788 | 37858 ft | 449 kts | 324° |
| 2026-05-03 20:49 | 58.31557 | 14.55086 | 37856 ft | 449 kts | 324° |
| 2026-05-03 20:49 | 58.37043 | 14.49358 | 37856 ft | 449 kts | 324° |
| 2026-05-03 20:50 | 58.42510 | 14.43630 | 37868 ft | 446 kts | 324° |
| 2026-05-03 20:50 | 58.47946 | 14.37914 | 37857 ft | 446 kts | 324° |
| 2026-05-03 20:51 | 58.53348 | 14.32215 | 37892 ft | 446 kts | 324° |
| 2026-05-03 20:51 | 58.58758 | 14.26485 | 37858 ft | 443 kts | 324° |
| 2026-05-03 20:52 | 58.64160 | 14.20744 | 37853 ft | 444 kts | 324° |
| 2026-05-03 20:52 | 58.69567 | 14.14978 | 37854 ft | 444 kts | 324° |
| 2026-05-03 20:53 | 58.74960 | 14.09205 | 37854 ft | 444 kts | 324° |
| 2026-05-03 20:53 | 58.80347 | 14.03418 | 37850 ft | 444 kts | 324° |
| 2026-05-03 20:54 | 58.85740 | 13.97605 | 37784 ft | 439 kts | 324° |
| 2026-05-03 20:54 | 58.91052 | 13.91853 | 36206 ft | 440 kts | 322° |
| 2026-05-03 20:54 | 58.93726 | 13.88951 | 35491 ft | 440 kts | 322° |
| 2026-05-03 20:55 | 58.96376 | 13.86075 | 34996 ft | 435 kts | 321° |
| 2026-05-03 20:55 | 58.99022 | 13.83193 | 34560 ft | 436 kts | 321° |
| 2026-05-03 20:55 | 59.01668 | 13.80306 | 34069 ft | 436 kts | 320° |
| 2026-05-03 20:55 | 59.04313 | 13.77418 | 33460 ft | 435 kts | 320° |
| 2026-05-03 20:56 | 59.06958 | 13.74525 | 32841 ft | 437 kts | 320° |
| 2026-05-03 20:56 | 59.09608 | 13.71620 | 32318 ft | 439 kts | 320° |
| 2026-05-03 20:56 | 59.12273 | 13.68692 | 31820 ft | 441 kts | 320° |
| 2026-05-03 20:56 | 59.14951 | 13.65745 | 31302 ft | 442 kts | 320° |
| 2026-05-03 20:57 | 59.17624 | 13.62798 | 30804 ft | 444 kts | 320° |
| 2026-05-03 20:57 | 59.20309 | 13.59833 | 30245 ft | 444 kts | 320° |
| 2026-05-03 20:57 | 59.22971 | 13.56887 | 29702 ft | 447 kts | 321° |
| 2026-05-03 20:57 | 59.25690 | 13.53874 | 29080 ft | 451 kts | 321° |
| 2026-05-03 20:58 | 59.28424 | 13.50838 | 28531 ft | 453 kts | 321° |
| 2026-05-03 20:58 | 59.31175 | 13.47777 | 28013 ft | 455 kts | 321° |
| 2026-05-03 20:58 | 59.33933 | 13.44703 | 27484 ft | 457 kts | 321° |
| 2026-05-03 20:58 | 59.36698 | 13.41616 | 26954 ft | 458 kts | 322° |
| 2026-05-03 20:59 | 59.39471 | 13.38513 | 26432 ft | 460 kts | 322° |
| 2026-05-03 20:59 | 59.42263 | 13.35382 | 25906 ft | 462 kts | 322° |
| 2026-05-03 20:59 | 59.45052 | 13.32272 | 25328 ft | 461 kts | 322° |
| 2026-05-03 20:59 | 59.47830 | 13.29196 | 24819 ft | 458 kts | 323° |
| 2026-05-03 21:00 | 59.50567 | 13.26154 | 24389 ft | 455 kts | 323° |
| 2026-05-03 21:00 | 59.51499 | 13.25116 | 24225 ft | 454 kts | 323° |
| 2026-05-03 21:00 | 59.56050 | 13.20041 | 23367 ft | 450 kts | 323° |
| 2026-05-03 21:00 | 59.58702 | 13.16859 | 22570 ft | 440 kts | 317° |
| 2026-05-03 21:01 | 59.60902 | 13.12908 | 21588 ft | 418 kts | 304° |
| 2026-05-03 21:01 | 59.62643 | 13.08445 | 20603 ft | 405 kts | 302° |
| 2026-05-03 21:01 | 59.64381 | 13.04119 | 19553 ft | 400 kts | 303° |
| 2026-05-03 21:01 | 59.66139 | 12.99824 | 18870 ft | 398 kts | 304° |
| 2026-05-03 21:02 | 59.67885 | 12.95601 | 18413 ft | 392 kts | 304° |
| 2026-05-03 21:02 | 59.69606 | 12.91453 | 17958 ft | 390 kts | 304° |
| 2026-05-03 21:02 | 59.71308 | 12.87360 | 17492 ft | 389 kts | 304° |
| 2026-05-03 21:02 | 59.73024 | 12.83233 | 17066 ft | 387 kts | 305° |
| 2026-05-03 21:03 | 59.74751 | 12.79071 | 16644 ft | 385 kts | 305° |
| 2026-05-03 21:03 | 59.76424 | 12.75034 | 16232 ft | 383 kts | 305° |
| 2026-05-03 21:03 | 59.78112 | 12.70954 | 15822 ft | 381 kts | 305° |
| 2026-05-03 21:03 | 59.79789 | 12.66895 | 15406 ft | 379 kts | 305° |
| 2026-05-03 21:04 | 59.81460 | 12.62840 | 15018 ft | 377 kts | 305° |
| 2026-05-03 21:04 | 59.83117 | 12.58815 | 14618 ft | 375 kts | 305° |
| 2026-05-03 21:04 | 59.84766 | 12.54802 | 14214 ft | 374 kts | 305° |
| 2026-05-03 21:04 | 59.86405 | 12.50804 | 13802 ft | 372 kts | 305° |
| 2026-05-03 21:05 | 59.87484 | 12.48171 | 13569 ft | 370 kts | 305° |
| 2026-05-03 21:05 | 59.89103 | 12.44214 | 13103 ft | 367 kts | 305° |
| 2026-05-03 21:05 | 59.91256 | 12.38938 | 12572 ft | 365 kts | 305° |
| 2026-05-03 21:05 | 59.92311 | 12.36348 | 12317 ft | 365 kts | 305° |
| 2026-05-03 21:06 | 59.93907 | 12.32427 | 11937 ft | 363 kts | 305° |
| 2026-05-03 21:06 | 59.95499 | 12.28510 | 11543 ft | 362 kts | 306° |
| 2026-05-03 21:06 | 59.97082 | 12.24607 | 11155 ft | 361 kts | 306° |
| 2026-05-03 21:06 | 59.98662 | 12.20703 | 10760 ft | 360 kts | 306° |
| 2026-05-03 21:07 | 60.00231 | 12.16821 | 10386 ft | 359 kts | 306° |
| 2026-05-03 21:07 | 60.01798 | 12.12937 | 10162 ft | 359 kts | 306° |
| 2026-05-03 21:07 | 60.03363 | 12.09054 | 10024 ft | 359 kts | 306° |
| 2026-05-03 21:07 | 60.04928 | 12.05162 | 9851 ft | 358 kts | 306° |
| 2026-05-03 21:08 | 60.06488 | 12.01278 | 9494 ft | 357 kts | 306° |
| 2026-05-03 21:08 | 60.08030 | 11.97432 | 9053 ft | 352 kts | 306° |
| 2026-05-03 21:08 | 60.09560 | 11.93609 | 8670 ft | 350 kts | 307° |
| 2026-05-03 21:08 | 60.11076 | 11.89813 | 8297 ft | 348 kts | 307° |
| 2026-05-03 21:09 | 60.12584 | 11.86033 | 7926 ft | 346 kts | 307° |
| 2026-05-03 21:09 | 60.14064 | 11.82317 | 7566 ft | 344 kts | 307° |
| 2026-05-03 21:09 | 60.15532 | 11.78626 | 7184 ft | 330 kts | 307° |
| 2026-05-03 21:09 | 60.16921 | 11.75125 | 6885 ft | 311 kts | 307° |
| 2026-05-03 21:10 | 60.18228 | 11.71824 | 6673 ft | 292 kts | 307° |
| 2026-05-03 21:10 | 60.19458 | 11.68715 | 6435 ft | 277 kts | 307° |
| 2026-05-03 21:10 | 60.20632 | 11.65744 | 6143 ft | 265 kts | 307° |
| 2026-05-03 21:10 | 60.21753 | 11.62905 | 5886 ft | 254 kts | 306° |
| 2026-05-03 21:11 | 60.22821 | 11.60197 | 5657 ft | 241 kts | 306° |
| 2026-05-03 21:11 | 60.23839 | 11.57615 | 5363 ft | 232 kts | 306° |
| 2026-05-03 21:11 | 60.24826 | 11.55108 | 5127 ft | 224 kts | 306° |
| 2026-05-03 21:11 | 60.25796 | 11.52641 | 5040 ft | 227 kts | 306° |
| 2026-05-03 21:12 | 60.26774 | 11.50152 | 5006 ft | 227 kts | 306° |
| 2026-05-03 21:12 | 60.27743 | 11.47628 | 4970 ft | 227 kts | 301° |
| 2026-05-03 21:12 | 60.28312 | 11.44710 | 4705 ft | 223 kts | 283° |
| 2026-05-03 21:12 | 60.28727 | 11.41691 | 4402 ft | 222 kts | 282° |
| 2026-05-03 21:13 | 60.29112 | 11.38837 | 4206 ft | 207 kts | 281° |
| 2026-05-03 21:13 | 60.29475 | 11.36096 | 4092 ft | 201 kts | 280° |
| 2026-05-03 21:13 | 60.29830 | 11.33381 | 3967 ft | 200 kts | 280° |
| 2026-05-03 21:13 | 60.30184 | 11.30662 | 3820 ft | 200 kts | 280° |
| 2026-05-03 21:14 | 60.30534 | 11.27948 | 3685 ft | 200 kts | 280° |
| 2026-05-03 21:14 | 60.30865 | 11.25222 | 3438 ft | 199 kts | 276° |
| 2026-05-03 21:14 | 60.30996 | 11.22510 | 3161 ft | 185 kts | 265° |
| 2026-05-03 21:14 | 60.30860 | 11.20036 | 2947 ft | 174 kts | 252° |
| 2026-05-03 21:15 | 60.30453 | 11.17768 | 2789 ft | 171 kts | 239° |
| 2026-05-03 21:15 | 60.29809 | 11.15778 | 2629 ft | 169 kts | 227° |
| 2026-05-03 21:15 | 60.28976 | 11.14129 | 2382 ft | 164 kts | 216° |
| 2026-05-03 21:15 | 60.28068 | 11.12969 | 2082 ft | 145 kts | 206° |
| 2026-05-03 21:16 | 60.27176 | 11.12272 | 1824 ft | 136 kts | 196° |
| 2026-05-03 21:16 | 60.26250 | 11.11800 | 1594 ft | 136 kts | 194° |
| 2026-05-03 21:16 | 60.25320 | 11.11333 | 1373 ft | 139 kts | 195° |
| 2026-05-03 21:16 | 60.24366 | 11.10775 | 1197 ft | 149 kts | 196° |
| 2026-05-03 21:17 | 60.23381 | 11.10201 | 1057 ft | 144 kts | 196° |
| 2026-05-03 21:17 | 60.22730 | 11.09820 | 942 ft | 143 kts | 195° |
| 2026-05-03 21:17 | 60.21498 | 11.09106 | 709 ft | 137 kts | 195° |
| 2026-05-03 21:17 | 60.20709 | 11.08651 | 680 ft | 76 kts | 196° |
| 2026-05-03 21:18 | 60.20389 | 11.08462 | 682 ft | 32 kts | 195° |
| 2026-05-03 21:18 | 60.20239 | 11.08690 | 680 ft | 32 kts | 102° |
| 2026-05-03 21:18 | 60.20174 | 11.09123 | 681 ft | 32 kts | 107° |
| 2026-05-03 21:18 | 60.20111 | 11.09559 | 681 ft | 33 kts | 106° |
| 2026-05-03 21:19 | 60.20020 | 11.09938 | 685 ft | 28 kts | 174° |
| 2026-05-03 21:19 | 60.19829 | 11.09837 | 681 ft | 29 kts | 195° |
| 2026-05-03 21:19 | 60.19634 | 11.09714 | 684 ft | 27 kts | 193° |
| 2026-05-03 21:19 | 60.19534 | 11.09656 | 684 ft | 1 kts | 196° |
| 2026-05-03 21:20 | 60.19533 | 11.09655 | 684 ft | 0 kts | 196° |